Time;durP1;ratioP1;P1;durP2;ratioP2;P2;SDS_P1;SDS_P2;PMS_P1;PMS_P2;Temp;Humidity;BMP_temperature;BMP_pressure;BME280_temperature;BME280_humidity;BME280_pressure;Samples;Min_cycle;Max_cycle;Signal;HPM_P1;HPM_P2
2024/01/05 00:00:03;;;;;;;;;;;-1.50;63.00;;;;;;4145385;28;20004;-86
2024/01/05 00:02:04;;;;;;;;;;;-1.60;63.40;;;;;;4155879;28;20359;-87
2024/01/05 00:04:07;;;;;;;;;;;-1.60;63.70;;;;;;4139126;28;19965;-84
2024/01/05 00:06:15;;;;;;;;;;;-1.50;64.00;;;;;;4160620;28;19924;-87
2024/01/05 00:08:36;;;;;;;;;;;-1.60;64.20;;;;;;4159217;28;19921;-86
2024/01/05 00:10:59;;;;;;;;;;;-1.70;64.20;;;;;;4162972;28;19920;-85
2024/01/05 00:13:20;;;;;;;;;;;-1.70;63.80;;;;;;4158752;28;20242;-86
2024/01/05 00:15:46;;;;;;;;;;;-1.60;64.10;;;;;;4158902;28;20322;-85
2024/01/05 00:18:07;;;;;;;;;;;-1.50;64.30;;;;;;4162664;28;19935;-87
2024/01/05 00:20:10;;;;;;;;;;;-1.50;64.20;;;;;;4158244;28;19913;-85
2024/01/05 00:22:34;;;;;;;;;;;-1.60;64.10;;;;;;4170794;28;20550;-86
2024/01/05 00:24:55;;;;;;;;;;;-1.60;63.40;;;;;;4160073;28;20082;-84
2024/01/05 00:27:15;;;;;;;;;;;-1.60;62.90;;;;;;4158417;28;20279;-83
2024/01/05 00:29:37;;;;;;;;;;;-1.60;63.20;;;;;;4152532;28;19968;-82
2024/01/05 00:32:01;;;;;;;;;;;-1.70;62.60;;;;;;4162631;28;20465;-84
2024/01/05 00:34:21;;;;;;;;;;;-1.70;61.90;;;;;;4157266;28;20122;-83
2024/01/05 00:36:44;;;;;;;;;;;-1.60;62.20;;;;;;4162608;28;20367;-85
2024/01/05 00:39:05;;;;;;;;;;;-1.70;62.30;;;;;;4160452;28;20460;-85
2024/01/05 00:41:26;;;;;;;;;;;-1.70;62.40;;;;;;4160560;28;19960;-85
2024/01/05 00:43:49;;;;;;;;;;;-1.70;62.90;;;;;;4157646;28;20387;-81
2024/01/05 00:45:50;;;;;;;;;;;-1.80;62.80;;;;;;4159716;28;20160;-83
2024/01/05 00:47:53;;;;;;;;;;;-1.60;62.80;;;;;;4142908;28;19914;-86
2024/01/05 00:49:54;;;;;;;;;;;-1.60;63.10;;;;;;4139794;28;20300;-82
2024/01/05 00:51:55;;;;;;;;;;;-1.60;62.80;;;;;;4156649;28;19921;-85
2024/01/05 00:53:55;;;;;;;;;;;-1.60;62.80;;;;;;4144794;28;19918;-84
2024/01/05 00:55:56;;;;;;;;;;;-1.60;62.50;;;;;;4146326;28;19922;-84
2024/01/05 00:57:57;;;;;;;;;;;-1.60;62.60;;;;;;4156613;28;20284;-84
2024/01/05 00:59:57;;;;;;;;;;;-1.60;62.80;;;;;;4162026;28;19912;-85
2024/01/05 01:01:58;;;;;;;;;;;-1.70;62.60;;;;;;4160813;28;19967;-83
2024/01/05 01:04:18;;;;;;;;;;;-1.60;62.60;;;;;;4164247;28;20389;-84
2024/01/05 01:06:39;;;;;;;;;;;-1.80;63.10;;;;;;4161122;28;19913;-84
2024/01/05 01:08:59;;;;;;;;;;;-1.70;63.00;;;;;;4171412;28;19920;-83
2024/01/05 01:11:00;;;;;;;;;;;-1.80;63.20;;;;;;4161365;28;20007;-86
2024/01/05 01:13:01;;;;;;;;;;;-1.90;62.60;;;;;;4144039;28;19917;-83
2024/01/05 01:15:02;;;;;;;;;;;-1.80;62.60;;;;;;4141972;28;19965;-82
2024/01/05 01:17:02;;;;;;;;;;;-1.90;63.00;;;;;;4163986;28;19913;-83
2024/01/05 01:19:03;;;;;;;;;;;-1.90;63.10;;;;;;4145420;28;19922;-83
2024/01/05 01:21:04;;;;;;;;;;;-1.90;62.80;;;;;;4158658;28;19917;-83
2024/01/05 01:23:04;;;;;;;;;;;-1.90;62.70;;;;;;4163219;28;20063;-84
2024/01/05 01:25:05;;;;;;;;;;;-1.90;62.60;;;;;;4140780;28;19913;-85
2024/01/05 01:27:06;;;;;;;;;;;-1.90;62.50;;;;;;4163954;28;19928;-86
2024/01/05 01:29:07;;;;;;;;;;;-2.00;62.00;;;;;;4161431;28;19929;-81
2024/01/05 01:31:08;;;;;;;;;;;-1.90;62.50;;;;;;4158548;28;19971;-83
2024/01/05 01:33:09;;;;;;;;;;;-1.80;62.80;;;;;;4146566;28;19917;-86
2024/01/05 01:35:09;;;;;;;;;;;-1.80;62.90;;;;;;4160412;28;20059;-84
2024/01/05 01:37:10;;;;;;;;;;;-1.80;63.10;;;;;;4160926;28;19964;-84
2024/01/05 01:39:11;;;;;;;;;;;-1.80;63.00;;;;;;4153237;28;19928;-85
2024/01/05 01:41:12;;;;;;;;;;;-1.80;63.20;;;;;;4158730;28;19917;-83
2024/01/05 01:43:26;;;;;;;;;;;-1.70;63.20;;;;;;4163810;28;19921;-85
2024/01/05 01:45:47;;;;;;;;;;;-1.80;62.60;;;;;;4160712;28;19917;-82
2024/01/05 01:48:07;;;;;;;;;;;-1.80;62.60;;;;;;4158191;28;20290;-83
2024/01/05 01:50:08;;;;;;;;;;;-1.80;62.70;;;;;;4160998;28;19999;-84
2024/01/05 01:52:09;;;;;;;;;;;-1.80;62.60;;;;;;4161745;28;20130;-82
2024/01/05 01:54:10;;;;;;;;;;;-1.70;63.00;;;;;;4162037;28;19972;-83
2024/01/05 01:56:11;;;;;;;;;;;-1.70;62.80;;;;;;4167542;28;19917;-83
2024/01/05 01:58:13;;;;;;;;;;;-1.90;62.00;;;;;;4160815;28;19940;-84
2024/01/05 02:00:14;;;;;;;;;;;-1.90;62.40;;;;;;4160639;28;20016;-83
2024/01/05 02:02:15;;;;;;;;;;;-1.90;62.90;;;;;;4163907;28;19913;-85
2024/01/05 02:04:18;;;;;;;;;;;-2.00;62.80;;;;;;4160018;28;19953;-84
2024/01/05 02:06:33;;;;;;;;;;;-2.00;63.30;;;;;;4161258;28;19944;-84
2024/01/05 02:08:54;;;;;;;;;;;-2.00;63.50;;;;;;4166134;28;20047;-83
2024/01/05 02:10:55;;;;;;;;;;;-2.00;63.40;;;;;;4181711;28;20378;-84
2024/01/05 02:13:15;;;;;;;;;;;-2.10;63.10;;;;;;4177992;28;19971;-86
2024/01/05 02:15:36;;;;;;;;;;;-2.10;63.50;;;;;;4182310;28;20149;-88
2024/01/05 02:17:36;;;;;;;;;;;-2.10;63.60;;;;;;4170369;28;20013;-89
2024/01/05 02:19:57;;;;;;;;;;;-2.10;64.00;;;;;;4185342;28;19988;-87
2024/01/05 02:22:18;;;;;;;;;;;-2.10;64.50;;;;;;4184346;28;19921;-87
2024/01/05 02:24:39;;;;;;;;;;;-2.10;65.10;;;;;;4182472;28;19928;-89
2024/01/05 02:27:00;;;;;;;;;;;-2.10;65.70;;;;;;4196555;28;19968;-88
2024/01/05 02:29:21;;;;;;;;;;;-2.20;66.30;;;;;;4186286;28;19921;-87
2024/01/05 02:31:42;;;;;;;;;;;-2.20;66.30;;;;;;4187836;28;20869;-88
2024/01/05 02:34:02;;;;;;;;;;;-2.20;66.60;;;;;;4179830;28;19916;-89
2024/01/05 02:36:23;;;;;;;;;;;-2.20;66.70;;;;;;4181191;28;19916;-88
2024/01/05 02:38:43;;;;;;;;;;;-2.30;66.80;;;;;;4182159;28;19912;-88
2024/01/05 02:41:03;;;;;;;;;;;-2.20;67.00;;;;;;4180929;28;19988;-84
2024/01/05 02:43:24;;;;;;;;;;;-2.30;67.10;;;;;;4166873;28;20370;-83
2024/01/05 02:45:44;;;;;;;;;;;-2.30;67.40;;;;;;4172413;28;20811;-83
2024/01/05 02:48:05;;;;;;;;;;;-2.30;67.30;;;;;;4164570;28;19929;-83
2024/01/05 02:50:26;;;;;;;;;;;-2.30;66.90;;;;;;4159946;28;20283;-83
2024/01/05 02:52:46;;;;;;;;;;;-2.30;67.50;;;;;;4175205;28;20295;-85
2024/01/05 02:55:07;;;;;;;;;;;-2.30;67.40;;;;;;4162175;28;19932;-84
2024/01/05 02:57:28;;;;;;;;;;;-2.30;68.50;;;;;;4163839;28;20345;-84
2024/01/05 02:59:48;;;;;;;;;;;-2.20;67.80;;;;;;4160810;28;20322;-84
2024/01/05 03:02:09;;;;;;;;;;;-2.20;67.60;;;;;;4161462;28;20359;-84
2024/01/05 03:04:29;;;;;;;;;;;-2.20;67.50;;;;;;4162896;28;19983;-84
2024/01/05 03:06:50;;;;;;;;;;;-2.20;67.70;;;;;;4169768;28;19932;-83
2024/01/05 03:09:10;;;;;;;;;;;-2.20;67.60;;;;;;4158911;28;20457;-88
2024/01/05 03:11:11;;;;;;;;;;;-2.20;67.70;;;;;;4162491;28;19921;-83
2024/01/05 03:13:11;;;;;;;;;;;-2.20;67.50;;;;;;4158637;28;19917;-84
2024/01/05 03:15:12;;;;;;;;;;;-2.20;67.50;;;;;;4146121;28;20013;-83
2024/01/05 03:17:12;;;;;;;;;;;-2.20;67.50;;;;;;4163593;28;20284;-84
2024/01/05 03:19:13;;;;;;;;;;;-2.20;67.70;;;;;;4142216;28;20003;-84
2024/01/05 03:21:14;;;;;;;;;;;-2.20;67.70;;;;;;4160059;28;19979;-83
2024/01/05 03:23:15;;;;;;;;;;;-2.10;68.00;;;;;;4160222;28;19925;-83
2024/01/05 03:25:15;;;;;;;;;;;-2.10;68.00;;;;;;4161243;28;19921;-84
2024/01/05 03:27:16;;;;;;;;;;;-2.10;68.00;;;;;;4156898;28;19922;-83
2024/01/05 03:29:18;;;;;;;;;;;-2.10;68.10;;;;;;4161533;28;19963;-82
2024/01/05 03:31:19;;;;;;;;;;;-2.10;68.20;;;;;;4162714;28;19917;-83
2024/01/05 03:33:20;;;;;;;;;;;-2.10;68.30;;;;;;4162220;28;19913;-83
2024/01/05 03:35:41;;;;;;;;;;;-2.00;68.50;;;;;;4159343;28;19917;-83
2024/01/05 03:38:02;;;;;;;;;;;-2.10;68.50;;;;;;4158189;28;20417;-83
2024/01/05 03:40:24;;;;;;;;;;;-2.00;68.60;;;;;;4158560;28;20281;-86
2024/01/05 03:42:25;;;;;;;;;;;-2.10;68.50;;;;;;4159341;28;20378;-83
2024/01/05 03:44:45;;;;;;;;;;;-2.10;68.50;;;;;;4159731;28;20408;-83
2024/01/05 03:47:06;;;;;;;;;;;-2.10;69.00;;;;;;4163923;28;20369;-83
2024/01/05 03:49:26;;;;;;;;;;;-2.20;69.30;;;;;;4156956;28;20543;-84
2024/01/05 03:51:47;;;;;;;;;;;-2.20;69.80;;;;;;4156692;28;20373;-83
2024/01/05 03:53:51;;;;;;;;;;;-2.10;70.10;;;;;;4152017;28;20017;-84
2024/01/05 03:56:12;;;;;;;;;;;-2.10;70.00;;;;;;4157500;28;19917;-83
2024/01/05 03:58:32;;;;;;;;;;;-2.00;70.10;;;;;;4157203;28;20334;-83
2024/01/05 04:00:53;;;;;;;;;;;-2.10;70.50;;;;;;4159485;28;20432;-82
2024/01/05 04:03:14;;;;;;;;;;;-2.10;70.80;;;;;;4161846;28;20242;-85
2024/01/05 04:05:35;;;;;;;;;;;-2.10;70.80;;;;;;4156115;28;19964;-86
2024/01/05 04:07:55;;;;;;;;;;;-2.20;71.10;;;;;;4161574;28;20048;-83
2024/01/05 04:10:16;;;;;;;;;;;-2.10;71.50;;;;;;4159749;28;19917;-85
2024/01/05 04:12:36;;;;;;;;;;;-2.10;71.50;;;;;;4160534;28;20523;-83
2024/01/05 04:14:57;;;;;;;;;;;-2.00;71.60;;;;;;4159114;28;20016;-85
2024/01/05 04:16:58;;;;;;;;;;;-2.00;71.50;;;;;;4146475;28;19995;-84
2024/01/05 04:18:59;;;;;;;;;;;-2.00;71.40;;;;;;4139282;28;19922;-85
2024/01/05 04:20:59;;;;;;;;;;;-2.00;71.60;;;;;;4144054;28;19997;-83
2024/01/05 04:23:00;;;;;;;;;;;-1.90;71.30;;;;;;4160246;28;20007;-86
2024/01/05 04:25:01;;;;;;;;;;;-2.00;71.20;;;;;;4158523;28;19921;-86
2024/01/05 04:27:01;;;;;;;;;;;-1.90;71.30;;;;;;4143050;28;19918;-84
2024/01/05 04:29:02;;;;;;;;;;;-1.90;71.30;;;;;;4153081;28;19932;-84
2024/01/05 04:31:03;;;;;;;;;;;-1.90;71.10;;;;;;4155935;28;19979;-85
2024/01/05 04:33:03;;;;;;;;;;;-1.90;71.20;;;;;;4155217;28;19924;-85
2024/01/05 04:35:05;;;;;;;;;;;-1.80;71.40;;;;;;4145458;28;19984;-86
2024/01/05 04:37:06;;;;;;;;;;;-1.90;71.70;;;;;;4141709;28;19921;-84
2024/01/05 04:39:26;;;;;;;;;;;-1.90;72.20;;;;;;4162134;28;20093;-87
2024/01/05 04:41:47;;;;;;;;;;;-1.90;72.40;;;;;;4172376;28;19909;-85
2024/01/05 04:44:07;;;;;;;;;;;-1.90;72.70;;;;;;4157486;28;20490;-86
2024/01/05 04:46:28;;;;;;;;;;;-2.00;73.20;;;;;;4158602;28;19921;-86
2024/01/05 04:48:49;;;;;;;;;;;-1.90;73.60;;;;;;4156859;28;19921;-85
2024/01/05 04:51:09;;;;;;;;;;;-1.90;73.50;;;;;;4158341;28;19939;-85
2024/01/05 04:53:30;;;;;;;;;;;-1.90;74.00;;;;;;4162499;28;19948;-87
2024/01/05 04:55:51;;;;;;;;;;;-1.80;74.00;;;;;;4162680;28;19921;-88
2024/01/05 04:58:11;;;;;;;;;;;-1.80;74.20;;;;;;4158622;28;20040;-85
2024/01/05 05:00:32;;;;;;;;;;;-1.80;74.30;;;;;;4162573;28;19956;-84
2024/01/05 05:02:33;;;;;;;;;;;-1.80;74.30;;;;;;4160337;28;19943;-84
2024/01/05 05:04:33;;;;;;;;;;;-1.80;74.90;;;;;;4143053;28;19925;-86
2024/01/05 05:06:34;;;;;;;;;;;-1.70;74.90;;;;;;4163280;28;19916;-84
2024/01/05 05:08:36;;;;;;;;;;;-1.80;75.00;;;;;;4156527;28;19917;-85
2024/01/05 05:10:39;;;;;;;;;;;-1.70;75.00;;;;;;4154276;28;19941;-84
2024/01/05 05:12:40;;;;;;;;;;;-1.70;75.00;;;;;;4179988;28;20357;-86
2024/01/05 05:14:40;;;;;;;;;;;-1.70;75.30;;;;;;4145626;28;19917;-84
2024/01/05 05:16:41;;;;;;;;;;;-1.70;74.90;;;;;;4163990;28;19921;-87
2024/01/05 05:18:43;;;;;;;;;;;-1.80;75.20;;;;;;4160740;28;19913;-85
2024/01/05 05:20:43;;;;;;;;;;;-1.70;75.50;;;;;;4160177;28;20271;-85
2024/01/05 05:22:44;;;;;;;;;;;-1.60;75.50;;;;;;4142221;28;19918;-85
2024/01/05 05:24:45;;;;;;;;;;;-1.70;75.40;;;;;;4163822;28;19960;-85
2024/01/05 05:26:45;;;;;;;;;;;-1.70;75.60;;;;;;4158626;28;20389;-85
2024/01/05 05:28:47;;;;;;;;;;;-1.70;75.60;;;;;;4155997;28;20513;-83
2024/01/05 05:30:48;;;;;;;;;;;-1.70;75.60;;;;;;4161596;28;19928;-84
2024/01/05 05:33:09;;;;;;;;;;;-1.60;76.00;;;;;;4168153;28;19923;-85
2024/01/05 05:35:29;;;;;;;;;;;-1.60;75.80;;;;;;4161054;28;19917;-84
2024/01/05 05:37:50;;;;;;;;;;;-1.60;75.50;;;;;;4160390;28;20427;-84
2024/01/05 05:40:11;;;;;;;;;;;-1.60;75.80;;;;;;4158702;28;19971;-82
2024/01/05 05:42:32;;;;;;;;;;;-1.70;75.80;;;;;;4162969;28;19913;-86
2024/01/05 05:44:54;;;;;;;;;;;-1.60;76.00;;;;;;4161280;28;21205;-84
2024/01/05 05:47:15;;;;;;;;;;;-1.60;75.90;;;;;;4160628;28;19923;-85
2024/01/05 05:49:36;;;;;;;;;;;-1.70;76.30;;;;;;4160258;28;19999;-85
2024/01/05 05:51:57;;;;;;;;;;;-1.60;76.60;;;;;;4174686;28;19931;-83
2024/01/05 05:54:17;;;;;;;;;;;-1.70;77.90;;;;;;4155842;28;20329;-84
2024/01/05 05:56:38;;;;;;;;;;;-1.70;77.20;;;;;;4156063;28;19917;-83
2024/01/05 05:58:59;;;;;;;;;;;-1.80;77.40;;;;;;4154247;28;20019;-83
2024/01/05 06:01:19;;;;;;;;;;;-1.80;77.80;;;;;;4159314;28;19944;-85
2024/01/05 06:03:40;;;;;;;;;;;-1.70;78.10;;;;;;4155874;28;19921;-85
2024/01/05 06:05:41;;;;;;;;;;;-1.70;78.00;;;;;;4155993;28;20012;-88
2024/01/05 06:07:41;;;;;;;;;;;-1.70;78.10;;;;;;4156204;28;19909;-83
2024/01/05 06:09:42;;;;;;;;;;;-1.80;78.30;;;;;;4143588;28;19913;-83
2024/01/05 06:11:43;;;;;;;;;;;-1.70;78.40;;;;;;4174353;28;20302;-85
2024/01/05 06:13:47;;;;;;;;;;;-1.70;78.20;;;;;;4159980;28;20418;-85
2024/01/05 06:15:47;;;;;;;;;;;-1.70;78.20;;;;;;4157657;28;19928;-84
2024/01/05 06:17:48;;;;;;;;;;;-1.70;78.20;;;;;;4141266;28;19909;-84
2024/01/05 06:19:49;;;;;;;;;;;-1.70;78.20;;;;;;4140928;28;20346;-85
2024/01/05 06:21:49;;;;;;;;;;;-1.60;78.30;;;;;;4137843;28;19922;-84
2024/01/05 06:23:50;;;;;;;;;;;-1.60;78.30;;;;;;4159789;28;20374;-86
2024/01/05 06:25:51;;;;;;;;;;;-1.50;78.20;;;;;;4142223;28;19917;-86
2024/01/05 06:27:51;;;;;;;;;;;-1.60;78.10;;;;;;4178482;28;19913;-87
2024/01/05 06:29:52;;;;;;;;;;;-1.50;78.50;;;;;;4157524;28;20441;-83
2024/01/05 06:31:52;;;;;;;;;;;-1.70;78.40;;;;;;4141581;28;19916;-83
2024/01/05 06:34:13;;;;;;;;;;;-1.70;78.70;;;;;;4157335;28;19921;-83
2024/01/05 06:36:33;;;;;;;;;;;-1.70;79.00;;;;;;4157168;28;19916;-84
2024/01/05 06:38:54;;;;;;;;;;;-1.60;79.20;;;;;;4159764;28;19913;-82
2024/01/05 06:40:55;;;;;;;;;;;-1.60;79.10;;;;;;4172251;28;20085;-86
2024/01/05 06:42:57;;;;;;;;;;;-1.40;79.10;;;;;;4173883;28;19904;-84
2024/01/05 06:45:17;;;;;;;;;;;-1.60;78.90;;;;;;4154146;28;20019;-84
2024/01/05 06:47:38;;;;;;;;;;;-1.70;79.40;;;;;;4162261;28;19909;-86
2024/01/05 06:49:58;;;;;;;;;;;-1.70;79.50;;;;;;4160769;28;20009;-84
2024/01/05 06:52:19;;;;;;;;;;;-1.70;79.50;;;;;;4159584;28;20433;-84
2024/01/05 06:54:39;;;;;;;;;;;-1.60;79.40;;;;;;4162813;28;19944;-87
2024/01/05 06:57:00;;;;;;;;;;;-1.70;79.40;;;;;;4158965;28;19916;-82
2024/01/05 06:59:24;;;;;;;;;;;-1.80;79.30;;;;;;4158894;28;19917;-85
2024/01/05 07:01:44;;;;;;;;;;;-1.90;80.00;;;;;;4160959;28;19967;-83
2024/01/05 07:04:07;;;;;;;;;;;-1.80;80.50;;;;;;4172697;28;19992;-86
2024/01/05 07:06:10;;;;;;;;;;;-1.60;79.80;;;;;;4141445;28;20078;-87
2024/01/05 07:08:10;;;;;;;;;;;-1.70;79.30;;;;;;4164952;28;19928;-87
2024/01/05 07:10:11;;;;;;;;;;;-1.60;79.30;;;;;;4144792;28;19956;-86
2024/01/05 07:12:11;;;;;;;;;;;-1.60;79.00;;;;;;4161801;28;19917;-90
2024/01/05 07:14:12;;;;;;;;;;;-1.70;78.90;;;;;;4163376;28;20523;-85
2024/01/05 07:16:20;;;;;;;;;;;-1.70;78.70;;;;;;4143960;28;19921;-86
2024/01/05 07:18:21;;;;;;;;;;;-1.60;79.20;;;;;;4159581;28;19920;-88
2024/01/05 07:20:21;;;;;;;;;;;-1.70;79.10;;;;;;4150551;28;19979;-84
2024/01/05 07:22:22;;;;;;;;;;;-1.60;79.20;;;;;;4175740;28;20443;-86
2024/01/05 07:24:22;;;;;;;;;;;-1.70;79.50;;;;;;4161512;28;20062;-84
2024/01/05 07:26:23;;;;;;;;;;;-1.50;79.50;;;;;;4145259;28;20509;-86
2024/01/05 07:28:24;;;;;;;;;;;-1.60;79.50;;;;;;4162934;28;20733;-85
2024/01/05 07:30:24;;;;;;;;;;;-1.60;79.50;;;;;;4142953;28;19913;-84
2024/01/05 07:32:25;;;;;;;;;;;-1.60;79.50;;;;;;4144882;28;19991;-85
2024/01/05 07:34:32;;;;;;;;;;;-1.70;78.90;;;;;;4144299;28;19924;-85
2024/01/05 07:36:33;;;;;;;;;;;-1.60;78.70;;;;;;4162043;28;20000;-84
2024/01/05 07:38:34;;;;;;;;;;;-1.50;78.70;;;;;;4145428;28;19921;-84
2024/01/05 07:40:35;;;;;;;;;;;-1.50;78.60;;;;;;4164731;28;19913;-87
2024/01/05 07:42:36;;;;;;;;;;;-1.40;78.30;;;;;;4163701;28;19956;-86
2024/01/05 07:44:36;;;;;;;;;;;-1.40;77.90;;;;;;4174167;28;19931;-88
2024/01/05 07:46:57;;;;;;;;;;;-1.40;77.90;;;;;;4157250;28;20415;-86
2024/01/05 07:48:57;;;;;;;;;;;-1.40;77.80;;;;;;4177333;28;19948;-85
2024/01/05 07:51:21;;;;;;;;;;;-1.40;77.20;;;;;;4162652;28;19922;-87
2024/01/05 07:53:22;;;;;;;;;;;-1.50;76.90;;;;;;4157461;28;19920;-86
2024/01/05 07:55:42;;;;;;;;;;;-1.50;76.50;;;;;;4156113;28;19925;-84
2024/01/05 07:57:44;;;;;;;;;;;-1.40;76.40;;;;;;4142383;28;19930;-86
2024/01/05 08:00:04;;;;;;;;;;;-1.50;76.10;;;;;;4156361;28;19909;-83
2024/01/05 08:02:25;;;;;;;;;;;-1.40;76.10;;;;;;4160226;28;20029;-85
2024/01/05 08:04:45;;;;;;;;;;;-1.50;75.20;;;;;;4156373;28;20008;-87
2024/01/05 08:07:06;;;;;;;;;;;-1.60;74.20;;;;;;4158236;28;20030;-86
2024/01/05 08:09:08;;;;;;;;;;;-1.40;74.50;;;;;;4157512;28;19920;-84
2024/01/05 08:11:08;;;;;;;;;;;-1.60;74.00;;;;;;4159858;28;19945;-86
2024/01/05 08:13:09;;;;;;;;;;;-1.70;73.70;;;;;;4142667;28;19914;-84
2024/01/05 08:15:09;;;;;;;;;;;-1.70;73.50;;;;;;4158038;28;20287;-84
2024/01/05 08:17:10;;;;;;;;;;;-1.60;73.40;;;;;;4162296;28;19917;-86
2024/01/05 08:19:10;;;;;;;;;;;-1.50;73.40;;;;;;4142616;28;19998;-85
2024/01/05 08:21:11;;;;;;;;;;;-1.60;73.40;;;;;;4162784;28;19925;-84
2024/01/05 08:23:12;;;;;;;;;;;-1.50;73.10;;;;;;4159544;28;19917;-87
2024/01/05 08:25:13;;;;;;;;;;;-1.50;73.20;;;;;;4160079;28;19921;-84
2024/01/05 08:27:14;;;;;;;;;;;-1.50;73.30;;;;;;4159568;28;20323;-85
2024/01/05 08:29:15;;;;;;;;;;;-1.50;73.30;;;;;;4160851;28;20268;-84
2024/01/05 08:31:16;;;;;;;;;;;-1.50;73.80;;;;;;4158515;28;19983;-86
2024/01/05 08:33:16;;;;;;;;;;;-1.50;74.30;;;;;;4163331;28;20264;-84
2024/01/05 08:35:17;;;;;;;;;;;-1.50;74.40;;;;;;4162444;28;19917;-88
2024/01/05 08:37:17;;;;;;;;;;;-1.50;74.60;;;;;;4157934;28;19992;-87
2024/01/05 08:39:20;;;;;;;;;;;-1.60;75.10;;;;;;4158904;28;20066;-85
2024/01/05 08:41:21;;;;;;;;;;;-1.50;75.20;;;;;;4151839;28;20353;-83
2024/01/05 08:43:22;;;;;;;;;;;-1.50;75.40;;;;;;4158498;28;19925;-87
2024/01/05 08:45:22;;;;;;;;;;;-1.50;75.30;;;;;;4160882;28;20383;-85
2024/01/05 08:47:25;;;;;;;;;;;-1.50;75.40;;;;;;4157136;28;19924;-84
2024/01/05 08:49:27;;;;;;;;;;;-1.50;75.50;;;;;;4159879;28;19921;-84
2024/01/05 08:51:28;;;;;;;;;;;-1.40;75.80;;;;;;4156056;28;19921;-85
2024/01/05 08:53:28;;;;;;;;;;;-1.40;75.80;;;;;;4174001;28;19913;-84
2024/01/05 08:55:29;;;;;;;;;;;-1.50;75.70;;;;;;4160893;28;19924;-82
2024/01/05 08:57:32;;;;;;;;;;;-1.40;75.80;;;;;;4159411;28;19928;-85
2024/01/05 08:59:36;;;;;;;;;;;-1.40;75.60;;;;;;4159619;28;20288;-84
2024/01/05 09:01:37;;;;;;;;;;;-1.40;75.60;;;;;;4175149;28;19924;-83
2024/01/05 09:03:38;;;;;;;;;;;-1.50;75.10;;;;;;4138867;28;19997;-84
2024/01/05 09:05:38;;;;;;;;;;;-1.20;75.20;;;;;;4162692;28;19913;-83
2024/01/05 09:07:39;;;;;;;;;;;-1.40;74.90;;;;;;4159060;28;19913;-86
2024/01/05 09:09:39;;;;;;;;;;;-1.50;74.80;;;;;;4156259;28;19921;-86
2024/01/05 09:11:40;;;;;;;;;;;-1.50;74.90;;;;;;4159292;28;19913;-83
2024/01/05 09:13:41;;;;;;;;;;;-1.30;75.30;;;;;;4157684;28;19928;-83
2024/01/05 09:15:41;;;;;;;;;;;-1.60;75.70;;;;;;4158074;28;19917;-84
2024/01/05 09:17:42;;;;;;;;;;;-1.60;75.80;;;;;;4157537;28;19921;-84
2024/01/05 09:19:43;;;;;;;;;;;-1.50;75.90;;;;;;4160127;28;19920;-84
2024/01/05 09:21:44;;;;;;;;;;;-1.50;75.90;;;;;;4145654;28;19913;-85
2024/01/05 09:23:44;;;;;;;;;;;-1.50;75.40;;;;;;4161754;28;19931;-83
2024/01/05 09:25:45;;;;;;;;;;;-1.40;75.20;;;;;;4171812;28;19917;-83
2024/01/05 09:27:45;;;;;;;;;;;-1.50;75.00;;;;;;4162099;28;19917;-83
2024/01/05 09:29:46;;;;;;;;;;;-1.50;75.40;;;;;;4160048;28;19956;-83
2024/01/05 09:31:46;;;;;;;;;;;-1.50;75.70;;;;;;4160609;28;19917;-85
2024/01/05 09:33:49;;;;;;;;;;;-1.50;75.90;;;;;;4161216;28;20614;-86
2024/01/05 09:35:50;;;;;;;;;;;-1.50;76.10;;;;;;4147802;28;20191;-84
2024/01/05 09:37:50;;;;;;;;;;;-1.50;76.60;;;;;;4143814;28;19921;-83
2024/01/05 09:39:52;;;;;;;;;;;-1.50;76.70;;;;;;4163723;28;19990;-84
2024/01/05 09:41:53;;;;;;;;;;;-1.40;76.60;;;;;;4159296;28;20444;-83
2024/01/05 09:43:54;;;;;;;;;;;-1.40;76.50;;;;;;4159101;28;19924;-86
2024/01/05 09:45:56;;;;;;;;;;;-1.40;76.40;;;;;;4163795;28;19950;-84
2024/01/05 09:47:57;;;;;;;;;;;-1.40;76.10;;;;;;4159779;28;19913;-86
2024/01/05 09:50:04;;;;;;;;;;;-1.40;75.90;;;;;;4162557;28;20421;-84
2024/01/05 09:52:05;;;;;;;;;;;-1.40;76.00;;;;;;4163017;28;20369;-84
2024/01/05 09:54:06;;;;;;;;;;;-1.30;76.30;;;;;;4161846;28;19935;-86
2024/01/05 09:56:07;;;;;;;;;;;-1.30;76.40;;;;;;4161692;28;20083;-82
2024/01/05 09:58:08;;;;;;;;;;;-1.30;76.30;;;;;;4161927;28;19924;-84
2024/01/05 10:00:12;;;;;;;;;;;-1.20;76.20;;;;;;4168225;28;19913;-84
2024/01/05 10:02:15;;;;;;;;;;;-1.20;75.90;;;;;;4160985;28;19917;-84
2024/01/05 10:04:15;;;;;;;;;;;-1.30;76.00;;;;;;4144310;28;19951;-85
2024/01/05 10:06:17;;;;;;;;;;;-1.20;76.00;;;;;;4157028;28;19913;-84
2024/01/05 10:08:24;;;;;;;;;;;-1.10;75.90;;;;;;4159450;28;19920;-85
2024/01/05 10:10:49;;;;;;;;;;;-1.30;75.00;;;;;;4162804;28;20649;-84
2024/01/05 10:12:50;;;;;;;;;;;-1.40;75.10;;;;;;4152605;28;19925;-86
2024/01/05 10:15:01;;;;;;;;;;;-1.30;75.30;;;;;;4140715;28;20683;-82
2024/01/05 10:17:10;;;;;;;;;;;-1.30;75.90;;;;;;4158507;28;19940;-82
2024/01/05 10:19:12;;;;;;;;;;;-1.20;75.60;;;;;;4161778;28;19929;-86
2024/01/05 10:21:12;;;;;;;;;;;-1.20;75.70;;;;;;4163998;28;19923;-86
2024/01/05 10:23:18;;;;;;;;;;;-1.20;76.30;;;;;;4163543;28;20003;-84
2024/01/05 10:25:23;;;;;;;;;;;-1.30;75.50;;;;;;4143020;28;19964;-86
2024/01/05 10:27:27;;;;;;;;;;;-1.20;75.70;;;;;;4175826;28;20406;-83
2024/01/05 10:29:28;;;;;;;;;;;-1.20;76.10;;;;;;4160256;28;21368;-83
2024/01/05 10:31:29;;;;;;;;;;;-1.20;75.90;;;;;;4175974;28;19995;-82
2024/01/05 10:33:34;;;;;;;;;;;-1.20;76.20;;;;;;4162981;28;19975;-85
2024/01/05 10:35:35;;;;;;;;;;;-1.20;76.50;;;;;;4155278;28;19913;-83
2024/01/05 10:37:36;;;;;;;;;;;-1.20;76.60;;;;;;4144020;28;20045;-82
2024/01/05 10:39:44;;;;;;;;;;;-1.30;76.30;;;;;;4164243;28;20402;-87
2024/01/05 10:41:45;;;;;;;;;;;-1.20;76.40;;;;;;4158174;28;20569;-85
2024/01/05 10:43:46;;;;;;;;;;;-1.10;76.40;;;;;;4179088;28;19925;-83
2024/01/05 10:45:47;;;;;;;;;;;-1.20;76.40;;;;;;4158920;28;19971;-82
2024/01/05 10:47:51;;;;;;;;;;;-1.20;76.20;;;;;;4161660;28;20440;-83
2024/01/05 10:50:11;;;;;;;;;;;-1.20;75.80;;;;;;4161577;28;19913;-83
2024/01/05 10:52:32;;;;;;;;;;;-1.20;75.70;;;;;;4161644;28;19952;-84
2024/01/05 10:54:52;;;;;;;;;;;-1.20;75.50;;;;;;4160338;28;20104;-83
2024/01/05 10:57:10;;;;;;;;;;;-1.20;76.00;;;;;;4155416;28;19999;-83
2024/01/05 10:59:31;;;;;;;;;;;-1.10;76.00;;;;;;4163455;28;19947;-83
2024/01/05 11:01:51;;;;;;;;;;;-1.10;75.70;;;;;;4164148;28;20301;-84
2024/01/05 11:04:12;;;;;;;;;;;-1.20;75.10;;;;;;4163087;28;20199;-86
2024/01/05 11:06:35;;;;;;;;;;;-1.10;75.30;;;;;;4162593;28;19936;-86
2024/01/05 11:08:56;;;;;;;;;;;-1.30;74.70;;;;;;4161943;28;19917;-83
2024/01/05 11:11:22;;;;;;;;;;;-1.20;74.80;;;;;;4178485;28;20328;-84
2024/01/05 11:13:58;;;;;;;;;;;-1.20;74.70;;;;;;4163991;28;19913;-82
2024/01/05 11:16:38;;;;;;;;;;;-1.30;74.90;;;;;;4173995;28;20425;-83
2024/01/05 11:19:10;;;;;;;;;;;-1.30;75.00;;;;;;4175738;28;19924;-83
2024/01/05 11:21:50;;;;;;;;;;;-1.30;74.80;;;;;;4144112;28;19921;-82
2024/01/05 11:24:12;;;;;;;;;;;-1.20;75.10;;;;;;4143677;28;20016;-87
2024/01/05 11:26:39;;;;;;;;;;;-1.30;75.60;;;;;;4142644;28;19995;-85
2024/01/05 11:28:59;;;;;;;;;;;-1.20;75.70;;;;;;4125528;28;19918;-84
2024/01/05 11:31:46;;;;;;;;;;;-1.30;75.50;;;;;;4143698;28;19921;-82
2024/01/05 11:33:54;;;;;;;;;;;-1.20;75.50;;;;;;4124716;28;19922;-82
2024/01/05 11:35:55;;;;;;;;;;;-1.30;75.40;;;;;;4127625;28;19976;-85
2024/01/05 11:37:55;;;;;;;;;;;-1.30;76.00;;;;;;4128709;28;19929;-86
2024/01/05 11:39:56;;;;;;;;;;;-1.30;76.10;;;;;;4126177;28;19953;-85
2024/01/05 11:41:57;;;;;;;;;;;-1.20;76.30;;;;;;4130287;28;20049;-82
2024/01/05 11:43:57;;;;;;;;;;;-1.30;76.10;;;;;;4110323;28;20599;-83
2024/01/05 11:45:58;;;;;;;;;;;-1.20;76.60;;;;;;4126790;28;19949;-85
2024/01/05 11:47:58;;;;;;;;;;;-1.20;77.60;;;;;;4125224;28;19945;-82
2024/01/05 11:50:19;;;;;;;;;;;-1.20;77.20;;;;;;4127357;28;19918;-82
2024/01/05 11:52:20;;;;;;;;;;;-1.30;78.70;;;;;;4106363;28;20339;-83
2024/01/05 11:54:20;;;;;;;;;;;-1.20;78.30;;;;;;4126759;28;19928;-86
2024/01/05 11:56:25;;;;;;;;;;;-1.20;78.50;;;;;;4129505;28;19913;-83
2024/01/05 11:58:31;;;;;;;;;;;-1.20;79.50;;;;;;4128598;28;20390;-82
2024/01/05 12:00:46;;;;;;;;;;;-1.20;79.80;;;;;;4128371;28;19914;-83
2024/01/05 12:02:48;;;;;;;;;;;-1.10;79.80;;;;;;4145531;28;19914;-81
2024/01/05 12:04:51;;;;;;;;;;;-1.10;79.50;;;;;;4130749;28;20216;-83
2024/01/05 12:06:54;;;;;;;;;;;-1.10;79.60;;;;;;4126904;28;20298;-84
2024/01/05 12:08:55;;;;;;;;;;;-1.20;79.80;;;;;;4130091;28;20243;-83
2024/01/05 12:10:56;;;;;;;;;;;-1.30;79.80;;;;;;4142302;28;19921;-88
2024/01/05 12:13:00;;;;;;;;;;;-1.20;80.10;;;;;;4102532;28;20004;-82
2024/01/05 12:15:09;;;;;;;;;;;-1.20;80.20;;;;;;4125379;28;19965;-83
2024/01/05 12:17:30;;;;;;;;;;;-1.30;80.20;;;;;;4128033;28;19922;-88
2024/01/05 12:19:32;;;;;;;;;;;-1.20;80.80;;;;;;4121323;28;20656;-83
2024/01/05 12:21:52;;;;;;;;;;;-1.20;80.30;;;;;;4128681;28;19926;-85
2024/01/05 12:24:13;;;;;;;;;;;-1.10;79.90;;;;;;4129515;28;19988;-83
2024/01/05 12:26:34;;;;;;;;;;;-1.20;79.90;;;;;;4119855;28;20128;-83
2024/01/05 12:28:55;;;;;;;;;;;-1.20;80.20;;;;;;4128078;28;19988;-85